Capitol Logistics 2294


KSDF
Louisville International Airport-Standiford Field
Louisville, Kentucky, US
KDFW
Dallas-Fort Worth International Airport
Dallas, Texas, US

Activity Log

Date Flight Route Aircraft Duration
10/12/2020 CPX2294 PXV083089 APALO PXV ARG Q25 MEEOW FEWWW SEEVR4 B763 2h 04m

Route Details

Aircraft Information
Primary: Boeing 747-400BCF
Backup: Boeing 767-300BDSF
Date Restrictions
Between:Nov 16, 2019
Dec 31, 2019
Route Data
Distance: 637nm
Sched. Duration: 1h 50m
Avg. Duration: 2h 04m (+54m)
Times Flown: 1
Recm'd Route: PXV083089 APALO PXV ARG Q25 MEEOW FEWWW SEEVR4
Planned Altitude: 34,000ft
Origin Wx: KSDF 251056Z 03009KT 6SM BR OVC015 09/07 A3006 RMK AO2 SLP181 T00890067 $
Dest. Wx: KDFW 251053Z 11005KT 10SM FEW010 SCT021 SCT250 11/10 A2993 RMK AO2 SLP132 T01060100
Notes: SEASONAL FLIGHT | UPS SURGE OPS CONTRACT

Financial History
Total Freight: 110,037lbs
Average Load: 110,037lbs/flt
Fuel Used: 21,825lbs
Avg. Fuel Used: 21,825lbs/flt
Fuel Expense: $17,678
Avg. Fuel Expense: $17,678
Avg. Fuel Cost: $0.81/lbs
Total Gross Income: $207,970
Pilot Pay: $99
Total Expenses: $22,513
Total Revenue: $167,577
Average Revenue: $207,969.94